createdAt,value
2023-05-08T00:00:41.540Z,94859.00
2023-05-08T00:01:41.539Z,94859.00
2023-05-08T00:02:41.638Z,94859.00
2023-05-08T00:03:41.686Z,94857.00
2023-05-08T00:04:41.640Z,94857.00
2023-05-08T00:05:41.594Z,94857.00
2023-05-08T00:06:41.609Z,94859.00
2023-05-08T00:07:41.635Z,94859.00
2023-05-08T00:08:41.628Z,94859.00
2023-05-08T00:09:41.648Z,94861.00
2023-05-08T00:10:41.665Z,94863.00
2023-05-08T00:11:41.676Z,94861.00
2023-05-08T00:12:41.710Z,94859.00
2023-05-08T00:13:41.665Z,94859.00
2023-05-08T00:14:41.701Z,94863.00
2023-05-08T00:15:41.703Z,94861.00
2023-05-08T00:16:41.767Z,94861.00
2023-05-08T00:17:41.765Z,94861.00
2023-05-08T00:18:41.723Z,94857.00
2023-05-08T00:19:41.718Z,94859.00
2023-05-08T00:20:41.749Z,94861.00
2023-05-08T00:21:41.735Z,94861.00
2023-05-08T00:22:41.829Z,94861.00
2023-05-08T00:23:41.751Z,94861.00
2023-05-08T00:24:41.754Z,94863.00
2023-05-08T00:25:41.740Z,94861.00
2023-05-08T00:26:41.757Z,94861.00
2023-05-08T00:27:41.732Z,94861.00
2023-05-08T00:28:41.753Z,94861.00
2023-05-08T00:29:41.731Z,94855.00
2023-05-08T00:30:41.734Z,94857.00
2023-05-08T00:31:41.777Z,94857.00
2023-05-08T00:32:41.753Z,94859.00
2023-05-08T00:33:41.838Z,94857.00
2023-05-08T00:34:41.782Z,94855.00
2023-05-08T00:35:41.768Z,94855.00
2023-05-08T00:36:41.777Z,94857.00
2023-05-08T00:37:41.789Z,94857.00
2023-05-08T00:38:41.814Z,94859.00
2023-05-08T00:39:41.802Z,94857.00
2023-05-08T00:40:41.797Z,94859.00
2023-05-08T00:41:41.802Z,94855.00
2023-05-08T00:42:41.793Z,94857.00
2023-05-08T00:43:41.833Z,94857.00
2023-05-08T00:44:41.829Z,94855.00
2023-05-08T00:45:41.845Z,94857.00
2023-05-08T00:46:41.996Z,94855.00
2023-05-08T00:47:41.865Z,94855.00
2023-05-08T00:48:41.851Z,94859.00
2023-05-08T00:49:41.844Z,94855.00
2023-05-08T00:50:41.868Z,94855.00
2023-05-08T00:51:41.864Z,94861.00
2023-05-08T00:52:41.854Z,94857.00
2023-05-08T00:53:41.890Z,94853.00
2023-05-08T00:54:41.892Z,94857.00
2023-05-08T00:55:41.888Z,94859.00
2023-05-08T00:56:41.879Z,94857.00
2023-05-08T00:57:41.890Z,94857.00
2023-05-08T00:58:41.878Z,94857.00
2023-05-08T00:59:41.900Z,94863.00
2023-05-08T01:00:41.896Z,94861.00
2023-05-08T01:01:41.939Z,94863.00
2023-05-08T01:02:41.978Z,94865.00
2023-05-08T01:03:42.002Z,94867.00
2023-05-08T01:04:41.954Z,94863.00
2023-05-08T01:05:41.975Z,94865.00
2023-05-08T01:06:41.972Z,94861.00
2023-05-08T01:07:42.004Z,94861.00
2023-05-08T01:08:42.002Z,94861.00
2023-05-08T01:09:42.015Z,94863.00
2023-05-08T01:10:42.028Z,94863.00
2023-05-08T01:11:42.078Z,94859.00
2023-05-08T01:12:42.110Z,94863.00
2023-05-08T01:13:42.127Z,94861.00
2023-05-08T01:14:42.174Z,94865.00
2023-05-08T01:15:42.209Z,94865.00
2023-05-08T01:16:42.220Z,94863.00
2023-05-08T01:17:42.251Z,94865.00
2023-05-08T01:18:42.261Z,94863.00
2023-05-08T01:19:42.283Z,94863.00
2023-05-08T01:20:42.315Z,94865.00
2023-05-08T01:21:42.346Z,94863.00
2023-05-08T01:22:42.352Z,94863.00
2023-05-08T01:23:42.395Z,94861.00
2023-05-08T01:24:42.426Z,94863.00
2023-05-08T01:25:42.429Z,94863.00
2023-05-08T01:26:42.429Z,94865.00
2023-05-08T01:27:42.453Z,94865.00
2023-05-08T01:28:42.475Z,94867.00
2023-05-08T01:29:42.511Z,94867.00
2023-05-08T01:30:42.545Z,94867.00
2023-05-08T01:31:42.543Z,94869.00
2023-05-08T01:32:42.574Z,94867.00
2023-05-08T01:33:42.637Z,94873.00
2023-05-08T01:34:42.581Z,94875.00
2023-05-08T01:35:42.582Z,94873.00
2023-05-08T01:36:42.596Z,94875.00
2023-05-08T01:37:42.603Z,94877.00
2023-05-08T01:38:42.617Z,94875.00
2023-05-08T01:39:42.628Z,94873.00
2023-05-08T01:40:42.688Z,94875.00
2023-05-08T01:41:42.681Z,94877.00
2023-05-08T01:42:42.689Z,94875.00
2023-05-08T01:43:42.707Z,94877.00
2023-05-08T01:44:42.729Z,94877.00
2023-05-08T01:45:42.715Z,94877.00
2023-05-08T01:46:42.779Z,94879.00
2023-05-08T01:47:42.742Z,94879.00
2023-05-08T01:48:42.719Z,94879.00
2023-05-08T01:49:42.721Z,94887.00
2023-05-08T01:50:42.731Z,94887.00
2023-05-08T01:51:42.753Z,94889.00
2023-05-08T01:52:42.761Z,94887.00
2023-05-08T01:53:42.751Z,94879.00
2023-05-08T01:54:42.760Z,94889.00
2023-05-08T01:55:42.809Z,94887.00
2023-05-08T01:56:42.798Z,94889.00
2023-05-08T01:57:42.821Z,94879.00
2023-05-08T01:58:42.818Z,94889.00
2023-05-08T01:59:42.864Z,94887.00
2023-05-08T02:00:42.916Z,94877.00
2023-05-08T02:01:42.879Z,94889.00
2023-05-08T02:02:42.980Z,94877.00
2023-05-08T02:03:42.947Z,94879.00
2023-05-08T02:04:42.919Z,94879.00
2023-05-08T02:05:42.928Z,94887.00
2023-05-08T02:06:42.930Z,94887.00
2023-05-08T02:07:42.940Z,94887.00
2023-05-08T02:08:42.950Z,94887.00
2023-05-08T02:09:42.963Z,94889.00
2023-05-08T02:10:42.983Z,94877.00
2023-05-08T02:11:42.981Z,94879.00
2023-05-08T02:12:43.015Z,94879.00
2023-05-08T02:13:43.001Z,94887.00
2023-05-08T02:14:43.007Z,94891.00
2023-05-08T02:15:43.020Z,94889.00
2023-05-08T02:16:43.073Z,94887.00
2023-05-08T02:17:43.159Z,94891.00
2023-05-08T02:18:43.081Z,94889.00
2023-05-08T02:19:43.086Z,94887.00
2023-05-08T02:20:43.106Z,94889.00
2023-05-08T02:21:43.130Z,94889.00
2023-05-08T02:22:43.189Z,94889.00
2023-05-08T02:23:43.168Z,94887.00
2023-05-08T02:24:43.196Z,94887.00
2023-05-08T02:25:43.223Z,94887.00
2023-05-08T02:26:43.356Z,94877.00
2023-05-08T02:27:43.263Z,94877.00
2023-05-08T02:28:43.283Z,94877.00
2023-05-08T02:29:43.314Z,94877.00
2023-05-08T02:30:43.354Z,94875.00
2023-05-08T02:31:43.423Z,94871.00
2023-05-08T02:32:43.448Z,94871.00
2023-05-08T02:33:43.418Z,94869.00
2023-05-08T02:34:54.985Z,94871.00
2023-05-08T02:35:44.464Z,94875.00
2023-05-08T02:36:43.437Z,94873.00
2023-05-08T02:37:43.433Z,94871.00
2023-05-08T02:38:43.413Z,94871.00
2023-05-08T02:39:43.431Z,94873.00
2023-05-08T02:40:43.426Z,94877.00
2023-05-08T02:41:43.392Z,94875.00
2023-05-08T02:42:43.384Z,94875.00
2023-05-08T02:43:43.396Z,94877.00
2023-05-08T02:44:43.378Z,94879.00
2023-05-08T02:45:43.402Z,94879.00
2023-05-08T02:46:43.380Z,94889.00
2023-05-08T02:47:43.432Z,94889.00
2023-05-08T02:48:43.335Z,94887.00
2023-05-08T02:49:43.346Z,94887.00
2023-05-08T02:50:43.338Z,94887.00
2023-05-08T02:51:43.317Z,94891.00
2023-05-08T02:52:43.319Z,94889.00
2023-05-08T02:53:43.317Z,94889.00
2023-05-08T02:54:43.321Z,94887.00
2023-05-08T02:55:43.293Z,94891.00
2023-05-08T02:56:43.339Z,94887.00
2023-05-08T02:57:43.333Z,94887.00
2023-05-08T02:58:43.326Z,94889.00
2023-05-08T02:59:43.332Z,94889.00
2023-05-08T03:00:43.354Z,94887.00
2023-05-08T03:01:43.366Z,94887.00
2023-05-08T03:02:43.436Z,94887.00
2023-05-08T03:03:43.601Z,94889.00
2023-05-08T03:04:43.414Z,94887.00
2023-05-08T03:05:43.403Z,94887.00
2023-05-08T03:06:43.413Z,94879.00
2023-05-08T03:07:43.428Z,94879.00
2023-05-08T03:08:43.454Z,94877.00
2023-05-08T03:09:43.470Z,94879.00
2023-05-08T03:10:43.472Z,94875.00
2023-05-08T03:11:43.504Z,94875.00
2023-05-08T03:12:43.544Z,94873.00
2023-05-08T03:13:43.548Z,94873.00
2023-05-08T03:14:43.560Z,94875.00
2023-05-08T03:15:43.642Z,94875.00
2023-05-08T03:16:43.605Z,94873.00
2023-05-08T03:17:43.696Z,94875.00
2023-05-08T03:18:43.635Z,94877.00
2023-05-08T03:19:43.657Z,94875.00
2023-05-08T03:20:43.688Z,94875.00
2023-05-08T03:21:43.705Z,94873.00
2023-05-08T03:22:43.738Z,94877.00
2023-05-08T03:23:43.779Z,94873.00
2023-05-08T03:24:43.808Z,94875.00
2023-05-08T03:25:43.815Z,94871.00
2023-05-08T03:26:43.822Z,94869.00
2023-05-08T03:27:43.841Z,94871.00
2023-05-08T03:28:43.820Z,94871.00
2023-05-08T03:29:43.830Z,94867.00
2023-05-08T03:30:43.840Z,94865.00
2023-05-08T03:31:43.970Z,94865.00
2023-05-08T03:32:43.839Z,94865.00
2023-05-08T03:33:43.831Z,94865.00
2023-05-08T03:34:43.853Z,94865.00
2023-05-08T03:35:43.856Z,94867.00
2023-05-08T03:36:43.918Z,94865.00
2023-05-08T03:37:43.901Z,94863.00
2023-05-08T03:38:43.883Z,94865.00
2023-05-08T03:39:43.904Z,94865.00
2023-05-08T03:40:43.922Z,94865.00
2023-05-08T03:41:43.889Z,94867.00
2023-05-08T03:42:43.895Z,94869.00
2023-05-08T03:43:43.897Z,94873.00
2023-05-08T03:44:43.918Z,94875.00
2023-05-08T03:45:43.908Z,94877.00
2023-05-08T03:46:43.975Z,94877.00
2023-05-08T03:47:44.521Z,94873.00
2023-05-08T03:48:43.987Z,94877.00
2023-05-08T03:49:44.034Z,94887.00
2023-05-08T03:50:44.039Z,94877.00
2023-05-08T03:51:44.071Z,94873.00
2023-05-08T03:52:44.120Z,94873.00
2023-05-08T03:53:44.166Z,94873.00
2023-05-08T03:54:44.216Z,94875.00
2023-05-08T03:55:44.253Z,94875.00
2023-05-08T03:56:44.303Z,94873.00
2023-05-08T03:57:44.323Z,94875.00
2023-05-08T03:58:44.405Z,94877.00
2023-05-08T03:59:44.388Z,94875.00
2023-05-08T04:00:44.433Z,94879.00
2023-05-08T04:01:44.534Z,94873.00
2023-05-08T04:02:44.518Z,94887.00
2023-05-08T04:03:44.561Z,94877.00
2023-05-08T04:04:44.538Z,94887.00
2023-05-08T04:05:44.532Z,94889.00
2023-05-08T04:06:49.858Z,94877.00
2023-05-08T04:07:45.564Z,94889.00
2023-05-08T04:08:44.552Z,94887.00
2023-05-08T04:09:44.525Z,94891.00
2023-05-08T04:10:44.548Z,94895.00
2023-05-08T04:11:44.622Z,94891.00
2023-05-08T04:12:44.566Z,94891.00
2023-05-08T04:13:44.509Z,94893.00
2023-05-08T04:14:44.495Z,94895.00
2023-05-08T04:15:44.516Z,94897.00
2023-05-08T04:16:44.597Z,94901.00
2023-05-08T04:17:44.516Z,94899.00
2023-05-08T04:18:44.520Z,94902.00
2023-05-08T04:19:44.589Z,94901.00
2023-05-08T04:20:46.247Z,94901.00
2023-05-08T04:21:44.725Z,94901.00
2023-05-08T04:22:44.778Z,94902.00
2023-05-08T04:23:44.813Z,94902.00
2023-05-08T04:24:44.858Z,94899.00
2023-05-08T04:25:44.898Z,94901.00
2023-05-08T04:26:44.936Z,94899.00
2023-05-08T04:27:44.989Z,94902.00
2023-05-08T04:28:45.053Z,94904.00
2023-05-08T04:29:45.103Z,94902.00
2023-05-08T04:30:45.140Z,94902.00
2023-05-08T04:31:45.210Z,94906.00
2023-05-08T04:32:46.760Z,94906.00
2023-05-08T04:33:45.225Z,94908.00
2023-05-08T04:34:45.276Z,94910.00
2023-05-08T04:35:45.297Z,94910.00
2023-05-08T04:36:45.361Z,94910.00
2023-05-08T04:37:45.418Z,94918.00
2023-05-08T04:38:45.456Z,94918.00
2023-05-08T04:39:45.523Z,94916.00
2023-05-08T04:40:45.609Z,94920.00
2023-05-08T04:41:45.689Z,94918.00
2023-05-08T04:42:45.683Z,94920.00
2023-05-08T04:43:45.711Z,94922.00
2023-05-08T04:44:45.743Z,94928.00
2023-05-08T04:45:45.793Z,94922.00
2023-05-08T04:46:45.819Z,94920.00
2023-05-08T04:47:45.929Z,94922.00
2023-05-08T04:48:45.931Z,94918.00
2023-05-08T04:49:45.979Z,94922.00
2023-05-08T04:50:46.015Z,94922.00
2023-05-08T04:51:46.053Z,94922.00
2023-05-08T04:52:46.085Z,94922.00
2023-05-08T04:53:46.105Z,94922.00
2023-05-08T04:54:46.193Z,94922.00
2023-05-08T04:55:46.190Z,94924.00
2023-05-08T04:56:46.230Z,94922.00
2023-05-08T04:57:46.307Z,94924.00
2023-05-08T04:58:46.293Z,94930.00
2023-05-08T04:59:46.331Z,94934.00
2023-05-08T05:00:46.342Z,94932.00
2023-05-08T05:01:46.417Z,94934.00
2023-05-08T05:02:46.453Z,94932.00
2023-05-08T05:03:46.506Z,94934.00
2023-05-08T05:04:46.532Z,94930.00
2023-05-08T05:05:46.601Z,94936.00
2023-05-08T05:06:46.630Z,94936.00
2023-05-08T05:07:46.674Z,94934.00
2023-05-08T05:08:46.723Z,94932.00
2023-05-08T05:09:46.786Z,94932.00
2023-05-08T05:10:46.832Z,94934.00
2023-05-08T05:11:46.876Z,94934.00
2023-05-08T05:12:47.062Z,94938.00
2023-05-08T05:13:46.934Z,94934.00
2023-05-08T05:14:46.951Z,94938.00
2023-05-08T05:15:47.025Z,94936.00
2023-05-08T05:16:46.996Z,94938.00
2023-05-08T05:17:47.052Z,94938.00
2023-05-08T05:18:47.070Z,94944.00
2023-05-08T05:19:47.130Z,94942.00
2023-05-08T05:20:47.157Z,94942.00
2023-05-08T05:21:47.342Z,94942.00
2023-05-08T05:22:47.230Z,94944.00
2023-05-08T05:23:47.273Z,94948.00
2023-05-08T05:24:47.302Z,94948.00
2023-05-08T05:25:47.324Z,94948.00
2023-05-08T05:26:47.331Z,94948.00
2023-05-08T05:27:47.311Z,94948.00
2023-05-08T05:28:47.360Z,94951.00
2023-05-08T05:29:47.391Z,94948.00
2023-05-08T05:30:47.401Z,94948.00
2023-05-08T05:31:47.527Z,94948.00
2023-05-08T05:32:47.508Z,94948.00
2023-05-08T05:33:47.540Z,94949.00
2023-05-08T05:34:47.561Z,94951.00
2023-05-08T05:35:47.613Z,94949.00
2023-05-08T05:36:47.643Z,94953.00
2023-05-08T05:37:47.710Z,94959.00
2023-05-08T05:38:47.770Z,94955.00
2023-05-08T05:39:47.783Z,94957.00
2023-05-08T05:40:47.814Z,94955.00
2023-05-08T05:41:47.815Z,94957.00
2023-05-08T05:42:47.814Z,94959.00
2023-05-08T05:43:47.856Z,94957.00
2023-05-08T05:44:47.836Z,94959.00
2023-05-08T05:45:47.841Z,94959.00
2023-05-08T05:46:47.945Z,94961.00
2023-05-08T05:47:47.959Z,94963.00
2023-05-08T05:48:47.946Z,94963.00
2023-05-08T05:49:47.948Z,94963.00
2023-05-08T05:50:47.934Z,94965.00
2023-05-08T05:51:47.958Z,94967.00
2023-05-08T05:52:48.080Z,94969.00
2023-05-08T05:53:47.972Z,94967.00
2023-05-08T05:54:47.996Z,94969.00
2023-05-08T05:55:48.022Z,94969.00
2023-05-08T05:56:48.006Z,94967.00
2023-05-08T05:57:48.021Z,94969.00
2023-05-08T05:58:48.033Z,94969.00
2023-05-08T05:59:48.037Z,94967.00
2023-05-08T06:00:48.039Z,94969.00
2023-05-08T06:01:48.045Z,94967.00
2023-05-08T06:02:48.175Z,94971.00
2023-05-08T06:03:48.058Z,94969.00
2023-05-08T06:04:48.043Z,94971.00
2023-05-08T06:05:48.050Z,94971.00
2023-05-08T06:06:48.125Z,94973.00
2023-05-08T06:07:48.151Z,94979.00
2023-05-08T06:08:48.213Z,94979.00
2023-05-08T06:09:48.288Z,94981.00
2023-05-08T06:10:48.354Z,94983.00
2023-05-08T06:11:48.383Z,94979.00
2023-05-08T06:12:48.484Z,94983.00
2023-05-08T06:13:50.393Z,94985.00
2023-05-08T06:14:48.554Z,94983.00
2023-05-08T06:15:48.616Z,94985.00
2023-05-08T06:16:48.699Z,94985.00
2023-05-08T06:17:48.786Z,94983.00
2023-05-08T06:18:48.763Z,94989.00
2023-05-08T06:19:48.835Z,94983.00
2023-05-08T06:20:48.865Z,94983.00
2023-05-08T06:21:48.927Z,94989.00
2023-05-08T06:22:48.962Z,94991.00
2023-05-08T06:23:48.969Z,94987.00
2023-05-08T06:24:49.042Z,94991.00
2023-05-08T06:25:49.082Z,94989.00
2023-05-08T06:26:49.139Z,94991.00
2023-05-08T06:27:49.230Z,94987.00
2023-05-08T06:28:49.260Z,94987.00
2023-05-08T06:29:49.763Z,94987.00
2023-05-08T06:30:49.625Z,94991.00
2023-05-08T06:31:49.431Z,94989.00
2023-05-08T06:32:49.582Z,94993.00
2023-05-08T06:33:49.598Z,94993.00
2023-05-08T06:34:49.572Z,94991.00
2023-05-08T06:35:49.661Z,94993.00
2023-05-08T06:36:49.762Z,94993.00
2023-05-08T06:37:49.749Z,94991.00
2023-05-08T06:38:49.828Z,94993.00
2023-05-08T06:39:57.261Z,94993.00
2023-05-08T06:40:50.904Z,94993.00
2023-05-08T06:41:49.881Z,94995.00
2023-05-08T06:42:49.842Z,94996.00
2023-05-08T06:43:49.842Z,94996.00
2023-05-08T06:44:49.850Z,94996.00
2023-05-08T06:45:49.839Z,94996.00
2023-05-08T06:46:50.026Z,94998.00
2023-05-08T06:47:49.950Z,94996.00
2023-05-08T06:48:49.814Z,94996.00
2023-05-08T06:49:49.793Z,94993.00
2023-05-08T06:50:49.794Z,94993.00
2023-05-08T06:51:49.815Z,94995.00
2023-05-08T06:52:49.867Z,94993.00
2023-05-08T06:53:49.873Z,94993.00
2023-05-08T06:54:50.355Z,94998.00
2023-05-08T06:55:49.937Z,94995.00
2023-05-08T06:56:49.952Z,94995.00
2023-05-08T06:57:49.973Z,94995.00
2023-05-08T06:58:57.002Z,94996.00
2023-05-08T06:59:51.047Z,94995.00
2023-05-08T07:00:49.984Z,94993.00
2023-05-08T07:01:50.066Z,94996.00
2023-05-08T07:02:50.149Z,94995.00
2023-05-08T07:03:49.980Z,94995.00
2023-05-08T07:04:50.034Z,94998.00
2023-05-08T07:05:49.967Z,94996.00
2023-05-08T07:06:49.950Z,94998.00
2023-05-08T07:07:50.297Z,94998.00
2023-05-08T07:08:49.958Z,95000.00
2023-05-08T07:09:49.966Z,95002.00
2023-05-08T07:10:49.946Z,95004.00
2023-05-08T07:11:49.934Z,94998.00
2023-05-08T07:12:50.026Z,95004.00
2023-05-08T07:13:49.941Z,95002.00
2023-05-08T07:14:49.910Z,95004.00
2023-05-08T07:15:49.927Z,95004.00
2023-05-08T07:16:49.902Z,95006.00
2023-05-08T07:17:49.926Z,95008.00
2023-05-08T07:18:49.922Z,95008.00
2023-05-08T07:19:49.985Z,95012.00
2023-05-08T07:20:49.981Z,95008.00
2023-05-08T07:21:49.986Z,95006.00
2023-05-08T07:22:49.978Z,95006.00
2023-05-08T07:23:49.982Z,95006.00
2023-05-08T07:24:50.039Z,95004.00
2023-05-08T07:25:50.040Z,95006.00
2023-05-08T07:26:50.061Z,95006.00
2023-05-08T07:27:50.056Z,95004.00
2023-05-08T07:28:50.042Z,95006.00
2023-05-08T07:29:50.103Z,95010.00
2023-05-08T07:30:50.095Z,95006.00
2023-05-08T07:31:50.131Z,95006.00
2023-05-08T07:32:50.189Z,95004.00
2023-05-08T07:33:50.143Z,95006.00
2023-05-08T07:34:50.246Z,95004.00
2023-05-08T07:35:50.196Z,95004.00
2023-05-08T07:36:50.216Z,95000.00
2023-05-08T07:37:50.246Z,95002.00
2023-05-08T07:38:50.240Z,95004.00
2023-05-08T07:39:50.253Z,94998.00
2023-05-08T07:40:50.781Z,95006.00
2023-05-08T07:41:50.339Z,95004.00
2023-05-08T07:42:50.767Z,95006.00
2023-05-08T07:43:50.326Z,94998.00
2023-05-08T07:44:54.473Z,95002.00
2023-05-08T07:45:50.346Z,95006.00
2023-05-08T07:46:50.401Z,95004.00
2023-05-08T07:47:51.163Z,95006.00
2023-05-08T07:48:50.379Z,95010.00
2023-05-08T07:49:50.322Z,95010.00
2023-05-08T07:50:50.368Z,95012.00
2023-05-08T07:51:50.303Z,95012.00
2023-05-08T07:52:50.764Z,95008.00
2023-05-08T07:53:50.290Z,95010.00
2023-05-08T07:54:50.301Z,95016.00
2023-05-08T07:55:50.266Z,95014.00
2023-05-08T07:56:50.282Z,95008.00
2023-05-08T07:57:50.302Z,95010.00
2023-05-08T07:58:50.266Z,95008.00
2023-05-08T07:59:50.250Z,95010.00
2023-05-08T08:00:50.247Z,95008.00
2023-05-08T08:01:50.263Z,95012.00
2023-05-08T08:02:50.468Z,95010.00
2023-05-08T08:03:50.390Z,95010.00
2023-05-08T08:04:50.228Z,95010.00
2023-05-08T08:05:50.365Z,95008.00
2023-05-08T08:06:50.233Z,95006.00
2023-05-08T08:07:50.288Z,95004.00
2023-05-08T08:08:50.236Z,95004.00
2023-05-08T08:09:50.193Z,95010.00
2023-05-08T08:10:50.259Z,95004.00
2023-05-08T08:11:50.479Z,95006.00
2023-05-08T08:12:50.812Z,95002.00
2023-05-08T08:13:50.361Z,95002.00
2023-05-08T08:14:50.510Z,95004.00
2023-05-08T08:15:50.484Z,95004.00
2023-05-08T08:16:50.574Z,95006.00
2023-05-08T08:17:50.937Z,95010.00
2023-05-08T08:18:50.590Z,95008.00
2023-05-08T08:19:50.645Z,95006.00
2023-05-08T08:20:50.741Z,95008.00
2023-05-08T08:21:50.829Z,95006.00
2023-05-08T08:22:50.878Z,95008.00
2023-05-08T08:23:50.872Z,95010.00
2023-05-08T08:24:52.466Z,95010.00
2023-05-08T08:25:51.325Z,95008.00
2023-05-08T08:26:50.935Z,95008.00
2023-05-08T08:27:50.888Z,95006.00
2023-05-08T08:28:51.016Z,95010.00
2023-05-08T08:29:52.523Z,95008.00
2023-05-08T08:30:51.888Z,95008.00
2023-05-08T08:31:50.893Z,95006.00
2023-05-08T08:32:50.956Z,95008.00
2023-05-08T08:33:50.875Z,95012.00
2023-05-08T08:34:50.870Z,95010.00
2023-05-08T08:35:50.873Z,95008.00
2023-05-08T08:36:50.827Z,95006.00
2023-05-08T08:37:51.309Z,95008.00
2023-05-08T08:38:50.908Z,95006.00
2023-05-08T08:39:50.825Z,95004.00
2023-05-08T08:40:50.859Z,95004.00
2023-05-08T08:41:50.859Z,95002.00
2023-05-08T08:42:51.299Z,95000.00
2023-05-08T08:43:50.940Z,95000.00
2023-05-08T08:44:50.946Z,95002.00
2023-05-08T08:45:51.014Z,95002.00
2023-05-08T08:46:51.083Z,95004.00
2023-05-08T08:47:51.124Z,95000.00
2023-05-08T08:48:51.051Z,95000.00
2023-05-08T08:49:51.060Z,95000.00
2023-05-08T08:50:51.127Z,95000.00
2023-05-08T08:51:51.122Z,94998.00
2023-05-08T08:52:51.129Z,94996.00
2023-05-08T08:53:51.107Z,94998.00
2023-05-08T08:54:51.224Z,94998.00
2023-05-08T08:55:51.112Z,94998.00
2023-05-08T08:56:51.115Z,95000.00
2023-05-08T08:57:51.111Z,94998.00
2023-05-08T08:58:51.233Z,94998.00
2023-05-08T08:59:51.159Z,95000.00
2023-05-08T09:00:51.164Z,94998.00
2023-05-08T09:01:51.330Z,95000.00
2023-05-08T09:02:51.271Z,94998.00
2023-05-08T09:03:51.246Z,94998.00
2023-05-08T09:04:51.198Z,94998.00
2023-05-08T09:05:51.329Z,95002.00
2023-05-08T09:06:51.207Z,95000.00
2023-05-08T09:07:51.352Z,95000.00
2023-05-08T09:08:51.211Z,94998.00
2023-05-08T09:09:51.260Z,95000.00
2023-05-08T09:10:51.309Z,94998.00
2023-05-08T09:11:51.270Z,94996.00
2023-05-08T09:12:51.365Z,94998.00
2023-05-08T09:13:51.283Z,94998.00
2023-05-08T09:14:51.296Z,95000.00
2023-05-08T09:15:51.403Z,94996.00
2023-05-08T09:16:51.357Z,94998.00
2023-05-08T09:17:51.396Z,94995.00
2023-05-08T09:18:51.336Z,94996.00
2023-05-08T09:19:51.347Z,94998.00
2023-05-08T09:20:51.432Z,94996.00
2023-05-08T09:21:51.343Z,94996.00
2023-05-08T09:22:51.387Z,94998.00
2023-05-08T09:23:51.383Z,94993.00
2023-05-08T09:24:51.416Z,94996.00
2023-05-08T09:25:51.402Z,94995.00
2023-05-08T09:26:51.497Z,94995.00
2023-05-08T09:27:51.818Z,94993.00
2023-05-08T09:28:51.843Z,94995.00
2023-05-08T09:29:51.445Z,94995.00
2023-05-08T09:30:51.441Z,94995.00
2023-05-08T09:31:51.580Z,94995.00
2023-05-08T09:32:51.561Z,94995.00
2023-05-08T09:33:51.821Z,94995.00
2023-05-08T09:34:51.613Z,94995.00
2023-05-08T09:35:51.703Z,94995.00
2023-05-08T09:36:51.755Z,94993.00
2023-05-08T09:37:51.805Z,94996.00
2023-05-08T09:38:52.321Z,94995.00
2023-05-08T09:39:51.982Z,94996.00
2023-05-08T09:40:52.366Z,94993.00
2023-05-08T09:41:52.033Z,94995.00
2023-05-08T09:42:52.168Z,94996.00
2023-05-08T09:43:52.176Z,94998.00
2023-05-08T09:44:52.230Z,94995.00
2023-05-08T09:45:52.307Z,94996.00
2023-05-08T09:46:52.323Z,94998.00
2023-05-08T09:47:52.413Z,95000.00
2023-05-08T09:48:52.431Z,94996.00
2023-05-08T09:49:52.465Z,95000.00
2023-05-08T09:50:52.537Z,94998.00
2023-05-08T09:51:52.711Z,95000.00
2023-05-08T09:52:52.719Z,95000.00
2023-05-08T09:53:52.740Z,95002.00
2023-05-08T09:54:52.781Z,95002.00
2023-05-08T09:55:52.824Z,95000.00
2023-05-08T09:56:52.881Z,95004.00
2023-05-08T09:57:52.941Z,95002.00
2023-05-08T09:58:53.085Z,95006.00
2023-05-08T09:59:53.073Z,95006.00
2023-05-08T10:00:53.127Z,95004.00
2023-05-08T10:01:53.132Z,95006.00
2023-05-08T10:02:53.365Z,95004.00
2023-05-08T10:03:53.362Z,95000.00
2023-05-08T10:04:53.238Z,95002.00
2023-05-08T10:05:53.323Z,95002.00
2023-05-08T10:06:56.378Z,95000.00
2023-05-08T10:07:53.848Z,94998.00
2023-05-08T10:08:53.360Z,94998.00
2023-05-08T10:09:53.353Z,94996.00
2023-05-08T10:10:53.404Z,94998.00
2023-05-08T10:11:53.328Z,94996.00
2023-05-08T10:12:53.376Z,94998.00
2023-05-08T10:13:53.452Z,95002.00
2023-05-08T10:14:53.383Z,95000.00
2023-05-08T10:15:53.311Z,94998.00
2023-05-08T10:16:53.336Z,95000.00
2023-05-08T10:17:53.355Z,95000.00
2023-05-08T10:18:53.321Z,94998.00
2023-05-08T10:19:53.280Z,94998.00
2023-05-08T10:20:53.363Z,94998.00
2023-05-08T10:21:53.340Z,94998.00
2023-05-08T10:22:53.290Z,94995.00
2023-05-08T10:23:53.287Z,94996.00
2023-05-08T10:24:53.256Z,94996.00
2023-05-08T10:25:55.021Z,94993.00
2023-05-08T10:27:05.735Z,94995.00
2023-05-08T10:27:54.253Z,94995.00
2023-05-08T10:28:53.323Z,94995.00
2023-05-08T10:29:53.210Z,94993.00
2023-05-08T10:30:53.348Z,94989.00
2023-05-08T10:31:53.208Z,94985.00
2023-05-08T10:32:53.233Z,94989.00
2023-05-08T10:33:53.204Z,94987.00
2023-05-08T10:34:53.237Z,94987.00
2023-05-08T10:35:53.211Z,94987.00
2023-05-08T10:36:54.185Z,94985.00
2023-05-08T10:37:53.237Z,94981.00
2023-05-08T10:38:53.278Z,94981.00
2023-05-08T10:39:53.344Z,94981.00
2023-05-08T10:40:53.445Z,94987.00
2023-05-08T10:41:53.465Z,94983.00
2023-05-08T10:42:53.502Z,94981.00
2023-05-08T10:43:53.514Z,94979.00
2023-05-08T10:44:53.542Z,94977.00
2023-05-08T10:45:53.657Z,94977.00
2023-05-08T10:46:53.734Z,94975.00
2023-05-08T10:47:53.755Z,94975.00
2023-05-08T10:48:53.733Z,94973.00
2023-05-08T10:49:53.719Z,94969.00
2023-05-08T10:50:53.731Z,94967.00
2023-05-08T10:51:53.753Z,94967.00
2023-05-08T10:52:53.763Z,94963.00
2023-05-08T10:53:53.799Z,94961.00
2023-05-08T10:54:53.772Z,94961.00
2023-05-08T10:55:53.972Z,94959.00
2023-05-08T10:56:53.800Z,94959.00
2023-05-08T10:57:53.786Z,94957.00
2023-05-08T10:58:53.828Z,94953.00
2023-05-08T10:59:53.802Z,94949.00
2023-05-08T11:00:53.845Z,94946.00
2023-05-08T11:01:53.867Z,94951.00
2023-05-08T11:02:53.938Z,94949.00
2023-05-08T11:03:53.929Z,94949.00
2023-05-08T11:04:53.854Z,94948.00
2023-05-08T11:05:53.922Z,94946.00
2023-05-08T11:06:53.859Z,94944.00
2023-05-08T11:07:53.890Z,94942.00
2023-05-08T11:08:54.248Z,94940.00
2023-05-08T11:09:54.039Z,94940.00
2023-05-08T11:10:54.047Z,94938.00
2023-05-08T11:11:54.119Z,94938.00
2023-05-08T11:12:54.254Z,94930.00
2023-05-08T11:13:54.230Z,94932.00
2023-05-08T11:14:54.225Z,94930.00
2023-05-08T11:15:54.335Z,94928.00
2023-05-08T11:16:54.379Z,94928.00
2023-05-08T11:17:54.518Z,94930.00
2023-05-08T11:18:54.841Z,94924.00
2023-05-08T11:19:54.546Z,94922.00
2023-05-08T11:20:54.579Z,94920.00
2023-05-08T11:21:54.856Z,94918.00
2023-05-08T11:22:54.698Z,94916.00
2023-05-08T11:23:54.745Z,94916.00
2023-05-08T11:24:54.789Z,94912.00
2023-05-08T11:25:54.836Z,94910.00
2023-05-08T11:26:54.878Z,94908.00
2023-05-08T11:27:54.897Z,94912.00
2023-05-08T11:28:54.986Z,94904.00
2023-05-08T11:29:54.960Z,94904.00
2023-05-08T11:30:54.991Z,94904.00
2023-05-08T11:31:55.035Z,94902.00
2023-05-08T11:32:55.083Z,94901.00
2023-05-08T11:33:55.064Z,94901.00
2023-05-08T11:34:55.063Z,94897.00
2023-05-08T11:35:55.048Z,94897.00
2023-05-08T11:36:55.063Z,94895.00
2023-05-08T11:37:55.073Z,94897.00
2023-05-08T11:38:56.348Z,94895.00
2023-05-08T11:39:55.076Z,94895.00
2023-05-08T11:40:55.105Z,94893.00
2023-05-08T11:41:55.102Z,94891.00
2023-05-08T11:42:55.127Z,94895.00
2023-05-08T11:43:55.146Z,94891.00
2023-05-08T11:44:55.170Z,94891.00